createdAt,value
2022-12-19T00:02:47.297Z,109.70
2022-12-19T00:05:51.254Z,91.43
2022-12-19T00:08:55.105Z,100.10
2022-12-19T00:11:57.413Z,96.20
2022-12-19T00:14:59.339Z,90.67
2022-12-19T00:18:04.268Z,103.30
2022-12-19T00:21:07.021Z,100.80
2022-12-19T00:24:18.394Z,101.37
2022-12-19T00:27:23.753Z,98.97
2022-12-19T00:30:25.990Z,102.20
2022-12-19T00:33:28.326Z,95.33
2022-12-19T00:36:33.521Z,96.23
2022-12-19T00:39:35.492Z,98.90
2022-12-19T00:42:37.604Z,97.40
2022-12-19T00:45:39.570Z,96.90
2022-12-19T00:48:42.848Z,105.87
2022-12-19T00:51:44.710Z,97.30
2022-12-19T00:54:47.614Z,100.40
2022-12-19T00:57:49.943Z,99.07
2022-12-19T01:00:54.719Z,94.13
2022-12-19T01:04:27.197Z,106.63
2022-12-19T01:07:20.817Z,102.70
2022-12-19T01:10:22.710Z,102.13
2022-12-19T01:13:26.782Z,104.10
2022-12-19T01:16:28.704Z,106.53
2022-12-19T01:19:30.867Z,99.57
2022-12-19T01:22:32.918Z,106.63
2022-12-19T01:25:36.669Z,97.80
2022-12-19T01:28:40.491Z,95.67
2022-12-19T01:31:42.781Z,97.27
2022-12-19T01:34:44.777Z,99.30
2022-12-19T01:37:46.945Z,101.10
2022-12-19T01:40:56.672Z,99.90
2022-12-19T01:44:04.605Z,100.97
2022-12-19T01:47:12.818Z,89.77
2022-12-19T01:50:32.202Z,104.93
2022-12-19T01:53:49.183Z,102.33
2022-12-19T01:56:55.841Z,100.13
2022-12-19T02:00:00.102Z,99.73
2022-12-19T02:03:12.420Z,107.93
2022-12-19T02:06:15.164Z,106.03
2022-12-19T02:09:17.788Z,96.53
2022-12-19T02:12:19.809Z,108.07
2022-12-19T02:15:23.926Z,100.90
2022-12-19T02:18:51.925Z,107.70
2022-12-19T02:22:18.998Z,106.80
2022-12-19T02:25:58.624Z,105.90
2022-12-19T02:29:27.111Z,107.37
2022-12-19T02:33:01.886Z,114.60
2022-12-19T02:36:24.883Z,102.67
2022-12-19T02:39:50.896Z,108.87
2022-12-19T02:42:59.603Z,95.40
2022-12-19T02:46:04.315Z,110.53
2022-12-19T02:49:07.097Z,109.47
2022-12-19T02:52:19.264Z,101.67
2022-12-19T02:55:25.948Z,101.87
2022-12-19T02:58:33.804Z,104.27
2022-12-19T03:01:56.379Z,110.83
2022-12-19T03:05:05.595Z,99.50
2022-12-19T03:08:35.169Z,102.50
2022-12-19T03:11:41.600Z,96.87
2022-12-19T03:14:44.607Z,103.33
2022-12-19T03:17:47.251Z,89.93
2022-12-19T03:21:06.848Z,97.03
2022-12-19T03:24:11.423Z,101.80
2022-12-19T03:27:20.884Z,96.83
2022-12-19T03:30:23.055Z,95.47
2022-12-19T03:33:27.720Z,89.80
2022-12-19T03:36:36.575Z,90.57
2022-12-19T03:39:42.849Z,107.67
2022-12-19T03:43:06.218Z,93.23
2022-12-19T03:46:17.914Z,89.80
2022-12-19T03:49:19.993Z,85.27
2022-12-19T03:52:43.631Z,91.37
2022-12-19T03:55:54.151Z,90.10
2022-12-19T03:59:20.476Z,95.33
2022-12-19T04:02:23.842Z,87.57
2022-12-19T04:05:28.013Z,85.90
2022-12-19T04:08:31.483Z,84.00
2022-12-19T04:11:43.969Z,92.93
2022-12-19T04:14:46.341Z,79.30
2022-12-19T04:17:56.465Z,85.43
2022-12-19T04:21:27.069Z,84.20
2022-12-19T04:24:34.197Z,77.07
2022-12-19T04:27:39.983Z,82.40
2022-12-19T04:30:45.072Z,88.37
2022-12-19T04:33:47.197Z,67.00
2022-12-19T04:36:50.965Z,77.40
2022-12-19T04:39:53.452Z,80.63
2022-12-19T04:42:55.960Z,75.23
2022-12-19T04:45:58.077Z,75.20
2022-12-19T04:49:00.284Z,82.57
2022-12-19T04:52:02.254Z,74.23
2022-12-19T04:55:04.860Z,73.43
2022-12-19T04:58:07.393Z,80.83
2022-12-19T05:01:09.963Z,77.73
2022-12-19T05:04:12.123Z,82.90
2022-12-19T05:07:14.507Z,79.53
2022-12-19T05:10:16.459Z,72.93
2022-12-19T05:13:18.595Z,73.10
2022-12-19T05:16:20.487Z,75.40
2022-12-19T05:19:22.799Z,71.57
2022-12-19T05:22:27.591Z,71.40
2022-12-19T05:25:29.778Z,74.47
2022-12-19T05:28:32.737Z,67.37
2022-12-19T05:31:35.084Z,70.17
2022-12-19T05:34:37.046Z,74.13
2022-12-19T05:37:39.211Z,66.83
2022-12-19T05:40:41.137Z,68.07
2022-12-19T05:43:45.052Z,74.83
2022-12-19T05:46:47.043Z,71.00
2022-12-19T05:49:49.352Z,65.03
2022-12-19T05:52:51.620Z,71.67
2022-12-19T05:56:08.872Z,67.97
2022-12-19T05:59:11.865Z,66.93
2022-12-19T06:02:14.214Z,68.40
2022-12-19T06:05:17.112Z,67.43
2022-12-19T06:08:19.344Z,70.00
2022-12-19T06:11:21.430Z,73.63
2022-12-19T06:14:23.671Z,65.87
2022-12-19T06:17:26.774Z,68.00
2022-12-19T06:20:29.108Z,63.10
2022-12-19T06:23:33.502Z,72.37
2022-12-19T06:26:35.772Z,68.93
2022-12-19T06:29:37.664Z,65.57
2022-12-19T06:32:39.902Z,65.23
2022-12-19T06:35:41.907Z,67.13
2022-12-19T06:38:44.391Z,68.63
2022-12-19T06:42:05.269Z,62.67
2022-12-19T06:45:07.849Z,74.43
2022-12-19T06:48:09.842Z,59.07
2022-12-19T06:51:11.973Z,63.63
2022-12-19T06:54:14.560Z,75.80
2022-12-19T06:57:17.115Z,70.47
2022-12-19T07:00:20.508Z,68.53
2022-12-19T07:03:26.826Z,79.00
2022-12-19T07:06:28.779Z,66.80
2022-12-19T07:09:31.741Z,67.17
2022-12-19T07:12:33.759Z,67.17
2022-12-19T07:15:36.778Z,71.73
2022-12-19T07:18:40.868Z,67.10
2022-12-19T07:21:43.489Z,63.53
2022-12-19T07:24:45.473Z,62.63
2022-12-19T07:27:48.171Z,57.33
2022-12-19T07:30:50.107Z,59.77
2022-12-19T07:33:52.335Z,57.30
2022-12-19T07:36:54.278Z,60.07
2022-12-19T07:39:56.506Z,60.47
2022-12-19T07:43:05.842Z,57.57
2022-12-19T07:46:08.186Z,54.30
2022-12-19T07:49:10.174Z,68.53
2022-12-19T07:52:12.327Z,60.53
2022-12-19T07:55:15.929Z,58.87
2022-12-19T07:58:18.333Z,57.43
2022-12-19T08:01:20.495Z,56.67
2022-12-19T08:04:22.841Z,59.37
2022-12-19T08:07:24.743Z,55.80
2022-12-19T08:10:27.009Z,58.90
2022-12-19T08:13:35.546Z,54.27
2022-12-19T08:17:10.846Z,53.70
2022-12-19T08:20:02.124Z,59.57
2022-12-19T08:23:05.007Z,53.90
2022-12-19T08:26:12.682Z,57.00
2022-12-19T08:29:14.908Z,54.67
2022-12-19T08:32:20.740Z,54.17
2022-12-19T08:35:23.603Z,54.93
2022-12-19T08:38:25.581Z,61.00
2022-12-19T08:41:27.894Z,63.93
2022-12-19T08:44:30.704Z,61.77
2022-12-19T08:47:32.948Z,57.80
2022-12-19T08:50:34.875Z,58.93
2022-12-19T08:53:38.841Z,51.50
2022-12-19T08:56:45.301Z,57.67
2022-12-19T08:59:48.854Z,49.57
2022-12-19T09:02:51.685Z,56.17
2022-12-19T09:06:07.894Z,55.20
2022-12-19T09:09:12.468Z,58.40
2022-12-19T09:12:16.265Z,57.33
2022-12-19T09:15:18.243Z,58.97
2022-12-19T09:18:20.398Z,61.67
2022-12-19T09:21:29.456Z,61.97
2022-12-19T09:24:31.744Z,57.07
2022-12-19T09:28:01.354Z,57.77
2022-12-19T09:31:03.309Z,56.93
2022-12-19T09:34:05.330Z,58.50
2022-12-19T09:37:10.371Z,61.10
2022-12-19T09:40:18.642Z,52.80
2022-12-19T09:43:51.889Z,50.03
2022-12-19T09:47:03.047Z,58.63
2022-12-19T09:50:22.950Z,58.03
2022-12-19T09:53:54.327Z,47.70
2022-12-19T09:57:03.006Z,55.93
2022-12-19T10:00:11.577Z,55.10
2022-12-19T10:03:29.797Z,46.33
2022-12-19T10:07:14.499Z,55.10
2022-12-19T10:12:34.882Z,51.83
2022-12-19T10:13:59.430Z,49.03
2022-12-19T10:17:52.294Z,49.33
2022-12-19T10:25:20.394Z,49.83
2022-12-19T10:28:53.224Z,43.47
2022-12-19T10:32:05.997Z,49.63
2022-12-19T10:35:14.921Z,37.20
2022-12-19T10:38:38.809Z,46.07
2022-12-19T10:41:46.304Z,48.67
2022-12-19T10:44:50.471Z,50.27
2022-12-19T10:47:57.594Z,49.87
2022-12-19T10:51:05.216Z,43.33
2022-12-19T10:54:09.290Z,49.30
2022-12-19T10:57:18.748Z,45.27
2022-12-19T11:00:20.741Z,42.67
2022-12-19T11:03:23.151Z,48.27
2022-12-19T11:06:46.362Z,43.90
2022-12-19T11:10:27.421Z,46.57
2022-12-19T11:17:24.290Z,42.17
2022-12-19T11:22:45.429Z,42.67
2022-12-19T11:29:39.759Z,41.30
2022-12-19T11:29:41.738Z,43.43
2022-12-19T11:30:43.747Z,39.53
2022-12-19T11:34:35.697Z,42.60
2022-12-19T11:38:06.139Z,41.80
2022-12-19T11:41:17.110Z,42.57
2022-12-19T11:44:30.317Z,43.20
2022-12-19T11:48:12.974Z,42.10
2022-12-19T11:51:56.317Z,42.87
2022-12-19T11:55:18.229Z,44.37
2022-12-19T11:58:22.184Z,42.40
2022-12-19T12:01:43.017Z,43.53
2022-12-19T12:05:04.162Z,41.80
2022-12-19T12:10:22.882Z,42.83
2022-12-19T12:21:03.693Z,40.30
2022-12-19T12:26:08.444Z,39.23
2022-12-19T12:31:26.998Z,37.07
2022-12-19T12:31:47.314Z,68.97
2022-12-19T12:31:50.996Z,42.70
2022-12-19T12:31:54.111Z,42.83
2022-12-19T12:35:46.916Z,39.50
2022-12-19T12:38:18.314Z,40.07
2022-12-19T12:40:59.509Z,40.50
2022-12-19T12:44:10.750Z,38.20
2022-12-19T12:47:22.867Z,54.97
2022-12-19T12:50:26.462Z,44.90
2022-12-19T12:53:35.080Z,41.77
2022-12-19T12:56:37.769Z,38.57
2022-12-19T12:59:46.273Z,43.40
2022-12-19T13:03:18.816Z,45.37
2022-12-19T13:06:34.983Z,45.00
2022-12-19T13:09:37.228Z,45.30
2022-12-19T13:13:00.497Z,39.57
2022-12-19T13:16:40.840Z,44.73
2022-12-19T13:20:14.727Z,47.70
2022-12-19T13:23:42.562Z,45.83
2022-12-19T13:26:49.382Z,46.43
2022-12-19T13:30:01.337Z,48.27
2022-12-19T13:33:03.660Z,48.73
2022-12-19T13:39:58.421Z,49.30
2022-12-19T13:40:32.522Z,42.53
2022-12-19T13:43:48.272Z,45.93
2022-12-19T13:46:50.621Z,74.43
2022-12-19T13:49:52.793Z,43.93
2022-12-19T13:52:55.367Z,48.77
2022-12-19T13:56:03.425Z,45.00
2022-12-19T13:59:05.791Z,46.10
2022-12-19T14:02:16.748Z,40.20
2022-12-19T14:06:14.928Z,41.67
2022-12-19T14:11:24.293Z,50.50
2022-12-19T14:13:40.596Z,45.33
2022-12-19T14:16:18.491Z,43.07
2022-12-19T14:19:24.258Z,47.07
2022-12-19T14:22:27.109Z,38.53
2022-12-19T14:28:14.511Z,38.83
2022-12-19T14:29:16.809Z,43.10
2022-12-19T14:33:46.308Z,35.43
2022-12-19T14:36:12.464Z,39.33
2022-12-19T14:39:28.331Z,44.13
2022-12-19T14:43:57.972Z,38.03
2022-12-19T14:52:51.158Z,44.27
2022-12-19T14:54:02.260Z,39.47
2022-12-19T14:54:25.518Z,48.13
2022-12-19T14:57:00.286Z,38.13
2022-12-19T15:00:34.950Z,49.67
2022-12-19T15:04:48.303Z,81.30
2022-12-19T15:07:21.906Z,46.40
2022-12-19T15:11:09.296Z,44.47
2022-12-19T15:14:53.740Z,43.47
2022-12-19T15:17:23.615Z,46.30
2022-12-19T15:20:25.832Z,43.03
2022-12-19T15:23:28.951Z,43.83
2022-12-19T15:26:34.947Z,43.10
2022-12-19T15:29:36.864Z,49.43
2022-12-19T15:32:42.196Z,46.23
2022-12-19T15:35:46.226Z,43.80
2022-12-19T15:38:49.607Z,46.07
2022-12-19T15:41:53.764Z,42.00
2022-12-19T15:44:58.021Z,48.43
2022-12-19T15:48:00.468Z,46.03
2022-12-19T15:51:03.890Z,43.50
2022-12-19T15:54:38.758Z,50.53
2022-12-19T15:57:32.701Z,39.37
2022-12-19T16:00:36.870Z,44.60
2022-12-19T16:03:40.631Z,44.53
2022-12-19T16:06:43.050Z,49.40
2022-12-19T16:09:45.510Z,50.00
2022-12-19T16:12:55.311Z,45.47
2022-12-19T16:15:58.749Z,40.67
2022-12-19T16:19:00.812Z,44.07
2022-12-19T16:22:18.539Z,40.70
2022-12-19T16:25:21.320Z,46.40
2022-12-19T16:28:30.490Z,52.93
2022-12-19T16:31:32.910Z,52.87
2022-12-19T16:34:35.493Z,50.37
2022-12-19T16:37:37.611Z,50.97
2022-12-19T16:40:41.020Z,46.77
2022-12-19T16:43:44.505Z,52.53
2022-12-19T16:46:50.811Z,47.17
2022-12-19T16:49:53.618Z,46.77
2022-12-19T16:52:56.559Z,42.87
2022-12-19T16:56:04.209Z,49.53
2022-12-19T16:59:41.817Z,51.03
2022-12-19T17:03:01.460Z,50.07
2022-12-19T17:06:07.292Z,44.73
2022-12-19T17:09:16.095Z,47.30
2022-12-19T17:12:27.019Z,51.60
2022-12-19T17:15:32.443Z,49.80
2022-12-19T17:18:41.948Z,51.80
2022-12-19T17:21:44.774Z,54.60
2022-12-19T17:24:48.549Z,51.93
2022-12-19T17:27:51.912Z,52.07
2022-12-19T17:30:59.358Z,49.93
2022-12-19T17:34:01.349Z,51.10
2022-12-19T17:37:04.990Z,48.73
2022-12-19T17:40:28.719Z,52.57
2022-12-19T17:43:30.982Z,50.83
2022-12-19T17:46:36.302Z,48.50
2022-12-19T17:49:39.015Z,51.10
2022-12-19T17:52:40.939Z,57.30
2022-12-19T17:55:43.717Z,60.57
2022-12-19T17:58:45.738Z,56.77
2022-12-19T18:01:48.201Z,58.67
2022-12-19T18:04:51.261Z,50.67
2022-12-19T18:07:53.840Z,50.43
2022-12-19T18:10:58.206Z,54.07
2022-12-19T18:14:00.351Z,51.33
2022-12-19T18:17:03.192Z,51.87
2022-12-19T18:20:31.115Z,50.90
2022-12-19T18:23:34.016Z,49.93
2022-12-19T18:26:36.176Z,53.93
2022-12-19T18:29:38.137Z,49.70
2022-12-19T18:33:05.508Z,50.00
2022-12-19T18:36:12.933Z,52.77
2022-12-19T18:39:21.539Z,53.13
2022-12-19T18:42:23.535Z,51.23
2022-12-19T18:45:31.947Z,52.97
2022-12-19T18:48:36.963Z,54.27
2022-12-19T18:51:39.707Z,53.23
2022-12-19T18:54:41.656Z,52.80
2022-12-19T18:57:46.458Z,64.20
2022-12-19T19:00:49.563Z,63.00
2022-12-19T19:03:55.493Z,59.77
2022-12-19T19:06:57.531Z,64.40
2022-12-19T19:09:59.735Z,63.97
2022-12-19T19:13:08.216Z,53.67
2022-12-19T19:16:24.661Z,55.53
2022-12-19T19:19:26.830Z,59.83
2022-12-19T19:22:29.605Z,60.47
2022-12-19T19:25:32.013Z,55.10
2022-12-19T19:28:37.310Z,55.83
2022-12-19T19:31:43.724Z,60.40
2022-12-19T19:34:46.172Z,63.70
2022-12-19T19:37:51.762Z,55.53
2022-12-19T19:40:54.092Z,55.97
2022-12-19T19:43:57.710Z,63.57
2022-12-19T19:47:00.138Z,70.60
2022-12-19T19:50:02.097Z,62.37
2022-12-19T19:53:05.137Z,55.67
2022-12-19T19:56:07.555Z,49.00
2022-12-19T19:59:09.839Z,47.53
2022-12-19T20:02:12.759Z,50.67
2022-12-19T20:05:19.664Z,50.97
2022-12-19T20:08:21.626Z,55.90
2022-12-19T20:11:23.806Z,60.47
2022-12-19T20:14:26.619Z,57.17
2022-12-19T20:17:28.826Z,52.40
2022-12-19T20:20:32.752Z,52.20
2022-12-19T20:23:35.313Z,49.57
2022-12-19T20:26:37.675Z,46.03
2022-12-19T20:29:40.037Z,44.20
2022-12-19T20:32:42.015Z,46.80
2022-12-19T20:35:44.554Z,41.33
2022-12-19T20:38:47.300Z,47.70
2022-12-19T20:41:53.348Z,48.50
2022-12-19T20:44:55.338Z,52.87
2022-12-19T20:48:01.281Z,55.23
2022-12-19T20:54:33.940Z,46.80
2022-12-19T20:57:36.370Z,51.27
2022-12-19T21:00:38.876Z,53.53
2022-12-19T21:03:43.251Z,53.80
2022-12-19T21:06:45.770Z,47.83
2022-12-19T21:09:50.125Z,48.27
2022-12-19T21:12:52.336Z,46.97
2022-12-19T21:15:59.072Z,48.40
2022-12-19T21:19:01.725Z,50.07
2022-12-19T21:22:03.909Z,44.27
2022-12-19T21:25:06.733Z,45.10
2022-12-19T21:28:08.930Z,43.53
2022-12-19T21:31:18.350Z,40.97
2022-12-19T21:34:20.435Z,44.10
2022-12-19T21:37:24.326Z,44.90
2022-12-19T21:40:26.293Z,57.00
2022-12-19T21:43:31.305Z,52.70
2022-12-19T21:46:33.684Z,45.30
2022-12-19T21:49:36.060Z,47.33
2022-12-19T21:52:38.430Z,42.70
2022-12-19T21:55:40.662Z,43.47
2022-12-19T21:58:42.884Z,45.23
2022-12-19T22:01:45.914Z,40.30
2022-12-19T22:04:51.165Z,47.77
2022-12-19T22:07:53.402Z,64.43
2022-12-19T22:10:55.503Z,59.23
2022-12-19T22:14:00.692Z,67.03
2022-12-19T22:17:02.745Z,58.47
2022-12-19T22:20:05.595Z,64.97
2022-12-19T22:23:12.919Z,56.83
2022-12-19T22:26:18.667Z,58.83
2022-12-19T22:29:20.732Z,68.30
2022-12-19T22:32:23.852Z,92.27
2022-12-19T22:35:26.792Z,74.23
2022-12-19T22:38:29.012Z,49.30
2022-12-19T22:41:33.159Z,54.80
2022-12-19T22:44:35.425Z,68.27
2022-12-19T22:47:41.892Z,57.20
2022-12-19T22:50:47.217Z,60.50
2022-12-19T22:53:49.663Z,53.67
2022-12-19T22:56:52.206Z,40.97
2022-12-19T22:59:54.231Z,58.43
2022-12-19T23:02:56.705Z,60.50
2022-12-19T23:06:01.288Z,50.87
2022-12-19T23:09:04.794Z,48.07
2022-12-19T23:12:06.762Z,44.80
2022-12-19T23:15:09.298Z,39.40
2022-12-19T23:18:11.329Z,42.97
2022-12-19T23:21:19.499Z,41.57
2022-12-19T23:24:21.420Z,48.20
2022-12-19T23:27:23.890Z,42.23
2022-12-19T23:30:25.781Z,45.27
2022-12-19T23:33:28.023Z,41.80
2022-12-19T23:37:08.886Z,45.03
2022-12-19T23:39:52.448Z,40.23
2022-12-19T23:42:54.337Z,40.27
2022-12-19T23:45:56.693Z,42.10
2022-12-19T23:48:58.604Z,44.60
2022-12-19T23:52:00.821Z,51.60
2022-12-19T23:55:02.700Z,62.10
2022-12-19T23:58:13.684Z,44.37
